sensor_id;sensor_type;location;lat;lon;timestamp;temperature;humidity
46932;DHT22;32670;51.464;11.964;2024-02-04T00:00:13;22.80;49.70
46932;DHT22;32670;51.464;11.964;2024-02-04T00:02:40;22.80;49.80
46932;DHT22;32670;51.464;11.964;2024-02-04T00:05:06;22.80;50.10
46932;DHT22;32670;51.464;11.964;2024-02-04T00:07:31;22.80;50.00
46932;DHT22;32670;51.464;11.964;2024-02-04T00:09:57;22.80;50.10
46932;DHT22;32670;51.464;11.964;2024-02-04T00:12:22;22.80;50.00
46932;DHT22;32670;51.464;11.964;2024-02-04T00:14:48;22.80;50.00
46932;DHT22;32670;51.464;11.964;2024-02-04T00:17:15;22.80;49.90
46932;DHT22;32670;51.464;11.964;2024-02-04T00:19:41;22.90;50.00
46932;DHT22;32670;51.464;11.964;2024-02-04T00:22:07;22.80;50.00
46932;DHT22;32670;51.464;11.964;2024-02-04T00:24:32;22.80;50.20
46932;DHT22;32670;51.464;11.964;2024-02-04T00:26:58;22.90;50.10
46932;DHT22;32670;51.464;11.964;2024-02-04T00:29:23;22.80;50.00
46932;DHT22;32670;51.464;11.964;2024-02-04T00:31:49;22.90;50.10
46932;DHT22;32670;51.464;11.964;2024-02-04T00:34:14;22.90;50.20
46932;DHT22;32670;51.464;11.964;2024-02-04T00:36:39;22.90;50.20
46932;DHT22;32670;51.464;11.964;2024-02-04T00:39:05;22.90;50.20
46932;DHT22;32670;51.464;11.964;2024-02-04T00:41:32;22.90;50.20
46932;DHT22;32670;51.464;11.964;2024-02-04T00:43:58;22.90;50.20
46932;DHT22;32670;51.464;11.964;2024-02-04T00:46:23;22.90;50.20
46932;DHT22;32670;51.464;11.964;2024-02-04T00:48:49;22.90;50.10
46932;DHT22;32670;51.464;11.964;2024-02-04T00:51:14;22.90;50.20
46932;DHT22;32670;51.464;11.964;2024-02-04T00:53:45;22.90;50.10
46932;DHT22;32670;51.464;11.964;2024-02-04T00:56:11;22.90;50.20
46932;DHT22;32670;51.464;11.964;2024-02-04T00:58:37;22.90;50.10
46932;DHT22;32670;51.464;11.964;2024-02-04T01:01:02;22.90;50.20
46932;DHT22;32670;51.464;11.964;2024-02-04T01:03:28;22.90;50.20
46932;DHT22;32670;51.464;11.964;2024-02-04T01:05:54;22.90;50.20
46932;DHT22;32670;51.464;11.964;2024-02-04T01:08:21;22.90;50.20
46932;DHT22;32670;51.464;11.964;2024-02-04T01:10:46;23.00;50.30
46932;DHT22;32670;51.464;11.964;2024-02-04T01:13:12;23.00;50.30
46932;DHT22;32670;51.464;11.964;2024-02-04T01:15:38;23.00;50.40
46932;DHT22;32670;51.464;11.964;2024-02-04T01:18:03;23.00;50.40
46932;DHT22;32670;51.464;11.964;2024-02-04T01:20:29;23.00;50.40
46932;DHT22;32670;51.464;11.964;2024-02-04T01:22:54;23.00;50.50
46932;DHT22;32670;51.464;11.964;2024-02-04T01:25:20;22.90;50.40
46932;DHT22;32670;51.464;11.964;2024-02-04T01:27:45;22.90;50.60
46932;DHT22;32670;51.464;11.964;2024-02-04T01:30:11;22.90;50.70
46932;DHT22;32670;51.464;11.964;2024-02-04T01:32:36;23.00;50.60
46932;DHT22;32670;51.464;11.964;2024-02-04T01:35:02;22.90;50.70
46932;DHT22;32670;51.464;11.964;2024-02-04T01:37:28;22.90;50.70
46932;DHT22;32670;51.464;11.964;2024-02-04T01:39:53;23.00;50.70
46932;DHT22;32670;51.464;11.964;2024-02-04T01:42:19;23.00;50.70
46932;DHT22;32670;51.464;11.964;2024-02-04T01:44:44;23.00;51.30
46932;DHT22;32670;51.464;11.964;2024-02-04T01:47:10;23.00;50.80
46932;DHT22;32670;51.464;11.964;2024-02-04T01:49:35;22.90;50.70
46932;DHT22;32670;51.464;11.964;2024-02-04T01:52:02;23.00;50.90
46932;DHT22;32670;51.464;11.964;2024-02-04T01:54:29;22.90;50.80
46932;DHT22;32670;51.464;11.964;2024-02-04T01:56:58;23.00;50.90
46932;DHT22;32670;51.464;11.964;2024-02-04T01:59:24;23.00;50.90
46932;DHT22;32670;51.464;11.964;2024-02-04T02:01:55;23.00;50.80
46932;DHT22;32670;51.464;11.964;2024-02-04T02:04:21;23.00;50.80
46932;DHT22;32670;51.464;11.964;2024-02-04T02:06:47;23.00;50.80
46932;DHT22;32670;51.464;11.964;2024-02-04T02:09:13;23.00;50.80
46932;DHT22;32670;51.464;11.964;2024-02-04T02:11:46;23.00;50.90
46932;DHT22;32670;51.464;11.964;2024-02-04T02:14:19;22.90;50.80
46932;DHT22;32670;51.464;11.964;2024-02-04T02:16:48;23.00;50.80
46932;DHT22;32670;51.464;11.964;2024-02-04T02:25:36;23.00;51.20
46932;DHT22;32670;51.464;11.964;2024-02-04T02:28:03;23.00;50.50
46932;DHT22;32670;51.464;11.964;2024-02-04T02:30:28;23.00;50.30
46932;DHT22;32670;51.464;11.964;2024-02-04T02:32:54;23.00;50.60
46932;DHT22;32670;51.464;11.964;2024-02-04T02:35:20;23.00;50.70
46932;DHT22;32670;51.464;11.964;2024-02-04T02:37:49;23.00;50.90
46932;DHT22;32670;51.464;11.964;2024-02-04T02:40:25;23.00;51.10
46932;DHT22;32670;51.464;11.964;2024-02-04T02:42:52;23.00;51.10
46932;DHT22;32670;51.464;11.964;2024-02-04T02:45:22;23.00;51.00
46932;DHT22;32670;51.464;11.964;2024-02-04T02:47:51;23.00;51.20
46932;DHT22;32670;51.464;11.964;2024-02-04T02:50:17;23.00;51.20
46932;DHT22;32670;51.464;11.964;2024-02-04T02:52:43;23.00;51.20
46932;DHT22;32670;51.464;11.964;2024-02-04T02:55:08;23.00;51.30
46932;DHT22;32670;51.464;11.964;2024-02-04T02:57:34;23.00;51.20
46932;DHT22;32670;51.464;11.964;2024-02-04T02:59:59;23.00;51.20
46932;DHT22;32670;51.464;11.964;2024-02-04T03:02:25;23.00;51.30
46932;DHT22;32670;51.464;11.964;2024-02-04T03:04:50;23.00;51.20
46932;DHT22;32670;51.464;11.964;2024-02-04T03:07:16;23.00;51.10
46932;DHT22;32670;51.464;11.964;2024-02-04T03:09:41;23.00;51.00
46932;DHT22;32670;51.464;11.964;2024-02-04T03:12:07;23.00;51.20
46932;DHT22;32670;51.464;11.964;2024-02-04T03:14:32;23.00;51.30
46932;DHT22;32670;51.464;11.964;2024-02-04T03:16:58;23.00;51.30
46932;DHT22;32670;51.464;11.964;2024-02-04T03:19:23;23.00;51.30
46932;DHT22;32670;51.464;11.964;2024-02-04T03:21:49;23.00;51.40
46932;DHT22;32670;51.464;11.964;2024-02-04T03:24:14;23.00;51.40
46932;DHT22;32670;51.464;11.964;2024-02-04T03:26:40;23.00;51.60
46932;DHT22;32670;51.464;11.964;2024-02-04T03:29:05;23.00;51.50
46932;DHT22;32670;51.464;11.964;2024-02-04T03:31:31;23.00;51.60
46932;DHT22;32670;51.464;11.964;2024-02-04T03:33:56;23.00;51.50
46932;DHT22;32670;51.464;11.964;2024-02-04T03:36:23;23.00;51.60
46932;DHT22;32670;51.464;11.964;2024-02-04T03:38:50;23.00;51.60
46932;DHT22;32670;51.464;11.964;2024-02-04T03:41:15;23.00;51.50
46932;DHT22;32670;51.464;11.964;2024-02-04T03:43:41;23.00;51.60
46932;DHT22;32670;51.464;11.964;2024-02-04T03:46:06;23.10;51.60
46932;DHT22;32670;51.464;11.964;2024-02-04T03:48:32;23.10;51.70
46932;DHT22;32670;51.464;11.964;2024-02-04T03:50:59;23.10;51.60
46932;DHT22;32670;51.464;11.964;2024-02-04T03:53:24;23.10;51.60
46932;DHT22;32670;51.464;11.964;2024-02-04T03:55:50;23.10;51.60
46932;DHT22;32670;51.464;11.964;2024-02-04T03:58:17;23.00;51.70
46932;DHT22;32670;51.464;11.964;2024-02-04T04:00:42;23.00;51.70
46932;DHT22;32670;51.464;11.964;2024-02-04T04:03:08;23.10;51.80
46932;DHT22;32670;51.464;11.964;2024-02-04T04:05:33;23.00;51.70
46932;DHT22;32670;51.464;11.964;2024-02-04T04:07:59;23.10;51.70
46932;DHT22;32670;51.464;11.964;2024-02-04T04:10:24;23.10;51.80
46932;DHT22;32670;51.464;11.964;2024-02-04T04:12:50;23.00;51.70
46932;DHT22;32670;51.464;11.964;2024-02-04T04:15:16;23.00;51.80
46932;DHT22;32670;51.464;11.964;2024-02-04T04:17:42;23.10;51.90
46932;DHT22;32670;51.464;11.964;2024-02-04T04:20:08;23.10;51.80
46932;DHT22;32670;51.464;11.964;2024-02-04T04:22:33;23.10;51.80
46932;DHT22;32670;51.464;11.964;2024-02-04T04:24:59;23.10;51.80
46932;DHT22;32670;51.464;11.964;2024-02-04T04:27:24;23.10;51.80
46932;DHT22;32670;51.464;11.964;2024-02-04T04:29:50;23.00;51.70
46932;DHT22;32670;51.464;11.964;2024-02-04T04:32:15;23.00;51.60
46932;DHT22;32670;51.464;11.964;2024-02-04T04:34:40;23.10;51.70
46932;DHT22;32670;51.464;11.964;2024-02-04T04:37:06;23.10;51.70
46932;DHT22;32670;51.464;11.964;2024-02-04T04:39:32;23.10;51.80
46932;DHT22;32670;51.464;11.964;2024-02-04T04:41:57;23.10;51.80
46932;DHT22;32670;51.464;11.964;2024-02-04T04:44:23;23.10;52.10
46932;DHT22;32670;51.464;11.964;2024-02-04T04:46:48;23.10;52.00
46932;DHT22;32670;51.464;11.964;2024-02-04T04:49:14;23.10;52.00
46932;DHT22;32670;51.464;11.964;2024-02-04T04:51:43;23.10;52.10
46932;DHT22;32670;51.464;11.964;2024-02-04T04:54:09;23.10;52.00
46932;DHT22;32670;51.464;11.964;2024-02-04T04:56:40;23.10;52.10
46932;DHT22;32670;51.464;11.964;2024-02-04T04:59:09;23.10;52.20
46932;DHT22;32670;51.464;11.964;2024-02-04T05:01:35;23.10;52.20
46932;DHT22;32670;51.464;11.964;2024-02-04T05:04:00;23.10;52.30
46932;DHT22;32670;51.464;11.964;2024-02-04T05:06:26;23.10;52.30
46932;DHT22;32670;51.464;11.964;2024-02-04T05:08:51;23.10;52.30
46932;DHT22;32670;51.464;11.964;2024-02-04T05:11:17;23.10;52.30
46932;DHT22;32670;51.464;11.964;2024-02-04T05:13:42;23.10;52.30
46932;DHT22;32670;51.464;11.964;2024-02-04T05:16:08;23.10;52.30
46932;DHT22;32670;51.464;11.964;2024-02-04T05:18:33;23.20;52.30
46932;DHT22;32670;51.464;11.964;2024-02-04T05:21:01;23.20;52.30
46932;DHT22;32670;51.464;11.964;2024-02-04T05:23:27;23.10;52.30
46932;DHT22;32670;51.464;11.964;2024-02-04T05:25:52;23.10;52.10
46932;DHT22;32670;51.464;11.964;2024-02-04T05:28:18;23.10;52.10
46932;DHT22;32670;51.464;11.964;2024-02-04T05:30:43;23.20;52.10
46932;DHT22;32670;51.464;11.964;2024-02-04T05:33:09;23.20;52.00
46932;DHT22;32670;51.464;11.964;2024-02-04T05:35:34;23.10;52.00
46932;DHT22;32670;51.464;11.964;2024-02-04T05:38:02;23.10;52.10
46932;DHT22;32670;51.464;11.964;2024-02-04T05:40:28;23.20;52.10
46932;DHT22;32670;51.464;11.964;2024-02-04T05:42:53;23.20;52.20
46932;DHT22;32670;51.464;11.964;2024-02-04T05:45:18;23.10;52.10
46932;DHT22;32670;51.464;11.964;2024-02-04T05:47:44;23.20;52.20
46932;DHT22;32670;51.464;11.964;2024-02-04T05:50:09;23.10;52.20
46932;DHT22;32670;51.464;11.964;2024-02-04T05:52:35;23.10;52.40
46932;DHT22;32670;51.464;11.964;2024-02-04T05:55:00;23.10;52.40
46932;DHT22;32670;51.464;11.964;2024-02-04T05:57:26;23.10;52.60
46932;DHT22;32670;51.464;11.964;2024-02-04T05:59:51;23.20;52.40
46932;DHT22;32670;51.464;11.964;2024-02-04T06:02:18;23.10;52.50
46932;DHT22;32670;51.464;11.964;2024-02-04T06:04:43;23.20;52.40
46932;DHT22;32670;51.464;11.964;2024-02-04T06:07:09;23.10;52.40
46932;DHT22;32670;51.464;11.964;2024-02-04T06:09:35;23.20;52.40
46932;DHT22;32670;51.464;11.964;2024-02-04T06:12:00;23.10;52.40
46932;DHT22;32670;51.464;11.964;2024-02-04T06:14:26;23.10;52.50
46932;DHT22;32670;51.464;11.964;2024-02-04T06:16:52;23.20;52.80
46932;DHT22;32670;51.464;11.964;2024-02-04T06:19:17;23.10;52.30
46932;DHT22;32670;51.464;11.964;2024-02-04T06:21:42;23.10;51.90
46932;DHT22;32670;51.464;11.964;2024-02-04T06:24:08;23.10;52.00
46932;DHT22;32670;51.464;11.964;2024-02-04T06:26:36;23.10;52.30
46932;DHT22;32670;51.464;11.964;2024-02-04T06:29:02;23.20;52.30
46932;DHT22;32670;51.464;11.964;2024-02-04T06:31:27;23.20;52.30
46932;DHT22;32670;51.464;11.964;2024-02-04T06:33:53;23.20;52.30
46932;DHT22;32670;51.464;11.964;2024-02-04T06:36:18;23.20;52.50
46932;DHT22;32670;51.464;11.964;2024-02-04T06:38:44;23.20;52.40
46932;DHT22;32670;51.464;11.964;2024-02-04T06:41:09;23.20;52.60
46932;DHT22;32670;51.464;11.964;2024-02-04T06:43:37;23.20;52.40
46932;DHT22;32670;51.464;11.964;2024-02-04T06:46:03;23.20;52.40
46932;DHT22;32670;51.464;11.964;2024-02-04T06:48:28;23.20;52.40
46932;DHT22;32670;51.464;11.964;2024-02-04T06:50:54;23.20;52.50
46932;DHT22;32670;51.464;11.964;2024-02-04T06:53:19;23.20;52.50
46932;DHT22;32670;51.464;11.964;2024-02-04T06:55:45;23.20;52.60
46932;DHT22;32670;51.464;11.964;2024-02-04T06:58:10;23.20;53.20
46932;DHT22;32670;51.464;11.964;2024-02-04T07:00:35;23.20;52.60
46932;DHT22;32670;51.464;11.964;2024-02-04T07:03:01;23.20;52.80
46932;DHT22;32670;51.464;11.964;2024-02-04T07:05:26;23.20;52.60
46932;DHT22;32670;51.464;11.964;2024-02-04T07:07:52;23.20;51.60
46932;DHT22;32670;51.464;11.964;2024-02-04T07:10:17;23.10;50.60
46932;DHT22;32670;51.464;11.964;2024-02-04T07:12:44;23.10;50.30
46932;DHT22;32670;51.464;11.964;2024-02-04T07:15:10;23.10;50.10
46932;DHT22;32670;51.464;11.964;2024-02-04T07:17:35;23.10;50.00
46932;DHT22;32670;51.464;11.964;2024-02-04T07:20:04;23.00;47.90
46932;DHT22;32670;51.464;11.964;2024-02-04T07:22:30;22.90;48.50
46932;DHT22;32670;51.464;11.964;2024-02-04T07:24:56;22.90;48.40
46932;DHT22;32670;51.464;11.964;2024-02-04T07:27:22;22.90;48.30
46932;DHT22;32670;51.464;11.964;2024-02-04T07:29:47;22.90;48.10
46932;DHT22;32670;51.464;11.964;2024-02-04T07:32:14;22.80;47.90
46932;DHT22;32670;51.464;11.964;2024-02-04T07:34:40;22.80;47.70
46932;DHT22;32670;51.464;11.964;2024-02-04T07:37:05;22.80;47.60
46932;DHT22;32670;51.464;11.964;2024-02-04T07:39:31;22.80;47.60
46932;DHT22;32670;51.464;11.964;2024-02-04T07:41:56;22.70;48.10
46932;DHT22;32670;51.464;11.964;2024-02-04T07:44:26;22.70;47.40
46932;DHT22;32670;51.464;11.964;2024-02-04T07:46:51;22.70;47.20
46932;DHT22;32670;51.464;11.964;2024-02-04T07:49:17;22.70;47.30
46932;DHT22;32670;51.464;11.964;2024-02-04T07:51:42;22.70;47.30
46932;DHT22;32670;51.464;11.964;2024-02-04T07:54:08;22.70;47.50
46932;DHT22;32670;51.464;11.964;2024-02-04T07:56:33;22.70;47.70
46932;DHT22;32670;51.464;11.964;2024-02-04T07:58:59;22.70;47.50
46932;DHT22;32670;51.464;11.964;2024-02-04T08:01:24;22.70;47.20
46932;DHT22;32670;51.464;11.964;2024-02-04T08:03:50;22.60;47.00
46932;DHT22;32670;51.464;11.964;2024-02-04T08:06:15;22.60;47.00
46932;DHT22;32670;51.464;11.964;2024-02-04T08:08:41;22.60;46.80
46932;DHT22;32670;51.464;11.964;2024-02-04T08:11:07;22.60;46.70
46932;DHT22;32670;51.464;11.964;2024-02-04T08:13:33;22.50;46.60
46932;DHT22;32670;51.464;11.964;2024-02-04T08:15:58;22.50;46.60
46932;DHT22;32670;51.464;11.964;2024-02-04T08:18:24;22.50;46.60
46932;DHT22;32670;51.464;11.964;2024-02-04T08:20:49;22.50;46.60
46932;DHT22;32670;51.464;11.964;2024-02-04T08:23:15;22.50;46.60
46932;DHT22;32670;51.464;11.964;2024-02-04T08:25:41;22.50;46.60
46932;DHT22;32670;51.464;11.964;2024-02-04T08:28:06;22.50;46.50
46932;DHT22;32670;51.464;11.964;2024-02-04T08:30:32;22.50;46.40
46932;DHT22;32670;51.464;11.964;2024-02-04T08:32:57;22.50;46.50
46932;DHT22;32670;51.464;11.964;2024-02-04T08:35:23;22.50;47.00
46932;DHT22;32670;51.464;11.964;2024-02-04T08:37:48;22.50;46.30
46932;DHT22;32670;51.464;11.964;2024-02-04T08:40:14;22.40;46.30
46932;DHT22;32670;51.464;11.964;2024-02-04T08:42:39;22.40;46.20
46932;DHT22;32670;51.464;11.964;2024-02-04T08:45:05;22.40;46.20
46932;DHT22;32670;51.464;11.964;2024-02-04T08:47:31;22.40;46.20
46932;DHT22;32670;51.464;11.964;2024-02-04T08:49:56;22.30;46.00
46932;DHT22;32670;51.464;11.964;2024-02-04T08:52:23;22.30;45.90
46932;DHT22;32670;51.464;11.964;2024-02-04T08:54:50;22.30;45.80
46932;DHT22;32670;51.464;11.964;2024-02-04T08:57:15;22.20;45.80
46932;DHT22;32670;51.464;11.964;2024-02-04T08:59:42;22.20;45.70
46932;DHT22;32670;51.464;11.964;2024-02-04T09:02:07;22.20;45.70
46932;DHT22;32670;51.464;11.964;2024-02-04T09:04:33;22.20;45.60
46932;DHT22;32670;51.464;11.964;2024-02-04T09:07:05;22.10;45.60
46932;DHT22;32670;51.464;11.964;2024-02-04T09:09:31;22.10;45.60
46932;DHT22;32670;51.464;11.964;2024-02-04T09:11:57;22.10;45.50
46932;DHT22;32670;51.464;11.964;2024-02-04T09:14:22;22.10;45.30
46932;DHT22;32670;51.464;11.964;2024-02-04T09:16:47;22.00;45.30
46932;DHT22;32670;51.464;11.964;2024-02-04T09:19:13;22.10;45.50
46932;DHT22;32670;51.464;11.964;2024-02-04T09:21:38;22.10;45.40
46932;DHT22;32670;51.464;11.964;2024-02-04T09:24:04;22.10;45.50
46932;DHT22;32670;51.464;11.964;2024-02-04T09:26:30;22.00;45.30
46932;DHT22;32670;51.464;11.964;2024-02-04T09:28:55;22.00;45.60
46932;DHT22;32670;51.464;11.964;2024-02-04T09:31:20;22.00;45.60
46932;DHT22;32670;51.464;11.964;2024-02-04T09:33:46;22.00;45.70
46932;DHT22;32670;51.464;11.964;2024-02-04T09:36:12;22.10;45.70
46932;DHT22;32670;51.464;11.964;2024-02-04T09:38:37;22.00;45.60
46932;DHT22;32670;51.464;11.964;2024-02-04T09:41:03;22.00;45.70
46932;DHT22;32670;51.464;11.964;2024-02-04T09:43:32;22.10;45.70
46932;DHT22;32670;51.464;11.964;2024-02-04T09:45:58;22.10;45.90
46932;DHT22;32670;51.464;11.964;2024-02-04T09:48:25;22.10;45.70
46932;DHT22;32670;51.464;11.964;2024-02-04T09:50:52;22.10;45.60
46932;DHT22;32670;51.464;11.964;2024-02-04T09:53:21;22.10;45.80
46932;DHT22;32670;51.464;11.964;2024-02-04T09:55:52;22.10;45.70
46932;DHT22;32670;51.464;11.964;2024-02-04T09:58:19;22.10;45.80
46932;DHT22;32670;51.464;11.964;2024-02-04T10:00:46;22.10;45.70
46932;DHT22;32670;51.464;11.964;2024-02-04T10:03:12;22.10;45.80
46932;DHT22;32670;51.464;11.964;2024-02-04T10:05:38;22.10;45.90
46932;DHT22;32670;51.464;11.964;2024-02-04T10:08:04;22.10;45.90
46932;DHT22;32670;51.464;11.964;2024-02-04T10:10:29;22.10;45.80
46932;DHT22;32670;51.464;11.964;2024-02-04T10:12:56;22.00;45.80
46932;DHT22;32670;51.464;11.964;2024-02-04T10:15:21;22.10;45.80
46932;DHT22;32670;51.464;11.964;2024-02-04T10:17:46;22.10;46.00
46932;DHT22;32670;51.464;11.964;2024-02-04T10:20:12;22.10;45.80
46932;DHT22;32670;51.464;11.964;2024-02-04T10:22:38;22.10;46.00
46932;DHT22;32670;51.464;11.964;2024-02-04T10:25:08;22.10;46.20
46932;DHT22;32670;51.464;11.964;2024-02-04T10:27:34;22.10;46.20
46932;DHT22;32670;51.464;11.964;2024-02-04T10:30:00;22.10;46.50
46932;DHT22;32670;51.464;11.964;2024-02-04T10:32:26;22.10;46.40
46932;DHT22;32670;51.464;11.964;2024-02-04T10:34:51;22.10;46.40
46932;DHT22;32670;51.464;11.964;2024-02-04T10:37:17;22.10;46.40
46932;DHT22;32670;51.464;11.964;2024-02-04T10:39:43;22.10;46.30
46932;DHT22;32670;51.464;11.964;2024-02-04T10:42:08;22.10;47.10
46932;DHT22;32670;51.464;11.964;2024-02-04T10:44:36;22.20;46.50
46932;DHT22;32670;51.464;11.964;2024-02-04T10:47:05;22.10;46.40
46932;DHT22;32670;51.464;11.964;2024-02-04T10:49:33;22.10;46.40
46932;DHT22;32670;51.464;11.964;2024-02-04T10:51:59;22.20;46.40
46932;DHT22;32670;51.464;11.964;2024-02-04T10:54:27;22.20;46.40
46932;DHT22;32670;51.464;11.964;2024-02-04T10:57:03;22.20;46.30
46932;DHT22;32670;51.464;11.964;2024-02-04T10:59:30;22.20;46.30
46932;DHT22;32670;51.464;11.964;2024-02-04T11:01:57;22.20;46.30
46932;DHT22;32670;51.464;11.964;2024-02-04T11:04:23;22.20;46.20
46932;DHT22;32670;51.464;11.964;2024-02-04T11:06:49;22.20;46.20
46932;DHT22;32670;51.464;11.964;2024-02-04T11:09:16;22.20;46.20
46932;DHT22;32670;51.464;11.964;2024-02-04T11:11:43;22.20;46.10
46932;DHT22;32670;51.464;11.964;2024-02-04T11:14:12;22.30;46.20
46932;DHT22;32670;51.464;11.964;2024-02-04T11:19:46;22.30;46.10
46932;DHT22;32670;51.464;11.964;2024-02-04T11:22:25;22.30;46.20
46932;DHT22;32670;51.464;11.964;2024-02-04T11:25:17;22.30;46.20
46932;DHT22;32670;51.464;11.964;2024-02-04T11:27:45;22.30;46.10
46932;DHT22;32670;51.464;11.964;2024-02-04T11:30:11;22.20;46.00
46932;DHT22;32670;51.464;11.964;2024-02-04T11:32:37;22.30;46.10
46932;DHT22;32670;51.464;11.964;2024-02-04T11:35:02;22.30;46.10
46932;DHT22;32670;51.464;11.964;2024-02-04T11:37:33;22.20;46.00
46932;DHT22;32670;51.464;11.964;2024-02-04T11:39:59;22.20;46.00
46932;DHT22;32670;51.464;11.964;2024-02-04T11:42:24;22.20;46.00
46932;DHT22;32670;51.464;11.964;2024-02-04T11:44:50;22.30;46.00
46932;DHT22;32670;51.464;11.964;2024-02-04T11:47:28;22.20;45.90
46932;DHT22;32670;51.464;11.964;2024-02-04T11:49:59;22.30;45.90
46932;DHT22;32670;51.464;11.964;2024-02-04T11:52:28;22.30;46.00
46932;DHT22;32670;51.464;11.964;2024-02-04T11:54:53;22.20;46.00
46932;DHT22;32670;51.464;11.964;2024-02-04T11:57:19;22.30;45.90
46932;DHT22;32670;51.464;11.964;2024-02-04T11:59:46;22.20;45.90
46932;DHT22;32670;51.464;11.964;2024-02-04T12:02:14;22.30;46.00
46932;DHT22;32670;51.464;11.964;2024-02-04T12:04:41;22.30;45.90
46932;DHT22;32670;51.464;11.964;2024-02-04T12:07:08;22.20;45.90
46932;DHT22;32670;51.464;11.964;2024-02-04T12:09:34;22.30;45.90
46932;DHT22;32670;51.464;11.964;2024-02-04T12:12:00;22.30;45.90
46932;DHT22;32670;51.464;11.964;2024-02-04T12:14:27;22.30;45.90
46932;DHT22;32670;51.464;11.964;2024-02-04T12:16:55;22.30;45.90
46932;DHT22;32670;51.464;11.964;2024-02-04T12:19:21;22.30;45.80
46932;DHT22;32670;51.464;11.964;2024-02-04T12:21:47;22.30;45.80
46932;DHT22;32670;51.464;11.964;2024-02-04T12:24:12;22.30;45.80
46932;DHT22;32670;51.464;11.964;2024-02-04T12:26:39;22.30;45.90
46932;DHT22;32670;51.464;11.964;2024-02-04T12:29:04;22.30;45.80
46932;DHT22;32670;51.464;11.964;2024-02-04T12:31:30;22.30;45.80
46932;DHT22;32670;51.464;11.964;2024-02-04T12:34:01;22.30;45.80
46932;DHT22;32670;51.464;11.964;2024-02-04T12:36:28;22.30;45.80
46932;DHT22;32670;51.464;11.964;2024-02-04T12:38:58;22.30;45.80
46932;DHT22;32670;51.464;11.964;2024-02-04T12:41:24;22.30;45.70
46932;DHT22;32670;51.464;11.964;2024-02-04T12:43:52;22.30;45.70
46932;DHT22;32670;51.464;11.964;2024-02-04T12:46:18;22.30;45.70
46932;DHT22;32670;51.464;11.964;2024-02-04T12:48:44;22.30;45.80
46932;DHT22;32670;51.464;11.964;2024-02-04T12:51:10;22.30;45.70
46932;DHT22;32670;51.464;11.964;2024-02-04T12:53:38;22.30;45.70
46932;DHT22;32670;51.464;11.964;2024-02-04T12:56:04;22.30;45.70
46932;DHT22;32670;51.464;11.964;2024-02-04T12:58:30;22.30;45.70
46932;DHT22;32670;51.464;11.964;2024-02-04T13:01:02;22.30;45.70
46932;DHT22;32670;51.464;11.964;2024-02-04T13:03:28;22.30;45.70
46932;DHT22;32670;51.464;11.964;2024-02-04T13:06:00;22.30;45.60
46932;DHT22;32670;51.464;11.964;2024-02-04T13:08:26;22.30;45.70
46932;DHT22;32670;51.464;11.964;2024-02-04T13:10:56;22.30;45.70
46932;DHT22;32670;51.464;11.964;2024-02-04T13:13:22;22.30;45.70
46932;DHT22;32670;51.464;11.964;2024-02-04T13:15:47;22.30;45.70
46932;DHT22;32670;51.464;11.964;2024-02-04T13:18:13;22.30;45.70
46932;DHT22;32670;51.464;11.964;2024-02-04T13:20:41;22.30;45.60
46932;DHT22;32670;51.464;11.964;2024-02-04T13:23:10;22.30;45.60
46932;DHT22;32670;51.464;11.964;2024-02-04T13:25:35;22.30;45.60
46932;DHT22;32670;51.464;11.964;2024-02-04T13:28:01;22.30;45.60
46932;DHT22;32670;51.464;11.964;2024-02-04T13:30:26;22.30;45.60
46932;DHT22;32670;51.464;11.964;2024-02-04T13:32:52;22.30;45.60
46932;DHT22;32670;51.464;11.964;2024-02-04T13:35:18;22.30;45.60
46932;DHT22;32670;51.464;11.964;2024-02-04T13:37:45;22.30;45.60
46932;DHT22;32670;51.464;11.964;2024-02-04T13:40:17;22.30;45.60
46932;DHT22;32670;51.464;11.964;2024-02-04T13:42:44;22.30;46.00
46932;DHT22;32670;51.464;11.964;2024-02-04T13:45:10;22.30;45.70
46932;DHT22;32670;51.464;11.964;2024-02-04T13:47:36;22.30;45.70
46932;DHT22;32670;51.464;11.964;2024-02-04T13:50:02;22.30;45.60
46932;DHT22;32670;51.464;11.964;2024-02-04T13:52:28;22.30;45.60
46932;DHT22;32670;51.464;11.964;2024-02-04T13:54:54;22.40;45.70
46932;DHT22;32670;51.464;11.964;2024-02-04T13:57:19;22.30;45.60
46932;DHT22;32670;51.464;11.964;2024-02-04T13:59:45;22.30;45.60
46932;DHT22;32670;51.464;11.964;2024-02-04T14:02:10;22.30;45.60
46932;DHT22;32670;51.464;11.964;2024-02-04T14:04:36;22.30;45.60
46932;DHT22;32670;51.464;11.964;2024-02-04T14:07:01;22.30;45.60
46932;DHT22;32670;51.464;11.964;2024-02-04T14:09:27;22.30;45.60
46932;DHT22;32670;51.464;11.964;2024-02-04T14:11:53;22.30;45.60
46932;DHT22;32670;51.464;11.964;2024-02-04T14:14:20;22.30;46.10
46932;DHT22;32670;51.464;11.964;2024-02-04T14:16:46;22.30;45.50
46932;DHT22;32670;51.464;11.964;2024-02-04T14:19:12;22.30;45.60
46932;DHT22;32670;51.464;11.964;2024-02-04T14:21:39;22.30;45.60
46932;DHT22;32670;51.464;11.964;2024-02-04T14:24:05;22.30;45.50
46932;DHT22;32670;51.464;11.964;2024-02-04T14:26:31;22.30;45.50
46932;DHT22;32670;51.464;11.964;2024-02-04T14:28:56;22.30;45.50
46932;DHT22;32670;51.464;11.964;2024-02-04T14:31:22;22.30;46.40
46932;DHT22;32670;51.464;11.964;2024-02-04T14:33:47;22.30;46.10
46932;DHT22;32670;51.464;11.964;2024-02-04T14:36:13;22.30;45.80
46932;DHT22;32670;51.464;11.964;2024-02-04T14:38:38;22.30;45.70
46932;DHT22;32670;51.464;11.964;2024-02-04T14:41:04;22.30;45.70
46932;DHT22;32670;51.464;11.964;2024-02-04T14:43:30;22.30;45.70
46932;DHT22;32670;51.464;11.964;2024-02-04T14:45:55;22.30;45.70
46932;DHT22;32670;51.464;11.964;2024-02-04T14:48:21;22.30;45.70
46932;DHT22;32670;51.464;11.964;2024-02-04T14:50:47;22.30;45.70
46932;DHT22;32670;51.464;11.964;2024-02-04T14:53:13;22.30;45.60
46932;DHT22;32670;51.464;11.964;2024-02-04T14:55:39;22.30;45.70
46932;DHT22;32670;51.464;11.964;2024-02-04T14:58:04;22.30;45.60
46932;DHT22;32670;51.464;11.964;2024-02-04T15:00:30;22.30;45.60
46932;DHT22;32670;51.464;11.964;2024-02-04T15:02:55;22.30;45.60
46932;DHT22;32670;51.464;11.964;2024-02-04T15:05:21;22.30;45.60
46932;DHT22;32670;51.464;11.964;2024-02-04T15:07:47;22.30;45.60
46932;DHT22;32670;51.464;11.964;2024-02-04T15:10:13;22.30;45.60
46932;DHT22;32670;51.464;11.964;2024-02-04T15:12:39;22.30;45.60
46932;DHT22;32670;51.464;11.964;2024-02-04T15:15:05;22.30;45.60
46932;DHT22;32670;51.464;11.964;2024-02-04T15:17:32;22.30;45.60